EDT,Max TemperatureF,Mean TemperatureF,Min TemperatureF,Max Dew PointF,MeanDew PointF,Min DewpointF,Max Humidity, Mean Humidity, Min Humidity, Max Sea Level PressureIn, Mean Sea Level PressureIn, Min Sea Level PressureIn, Max VisibilityMiles, Mean VisibilityMiles, Min VisibilityMiles, Max Wind SpeedMPH, Mean Wind SpeedMPH, Max Gust SpeedMPH,PrecipitationIn, CloudCover, Events, WindDirDegrees
2013-9-1,91,83,74,75,73,71,94,84,59,30.01,29.97,29.94,10,9,1,23,4,28,0.23,2,Rain-Thunderstorm,119
2013-9-2,88,81,74,75,74,72,100,85,68,30.04,30.00,29.95,10,9,2,14,2,17,0.17,2,Rain-Thunderstorm,175
2013-9-3,89,81,73,75,73,72,100,81,65,30.04,29.99,29.95,10,9,5,14,3,17,0.00,1,,103
2013-9-4,90,83,76,76,74,73,94,84,59,30.07,30.03,29.97,10,10,9,22,5,26,0.02,2,Rain,67
2013-9-5,93,84,75,79,75,69,100,82,49,30.09,30.04,29.99,10,9,4,13,6,16,0.04,2,,78
2013-9-6,93,83,73,77,74,70,97,82,49,30.06,30.01,29.92,10,8,0,22,4,33,1.30,3,Fog-Rain-Thunderstorm,72
2013-9-7,89,81,73,75,73,70,100,86,63,30.01,29.96,29.92,10,9,2,16,5,22,0.32,3,Rain-Thunderstorm,54
2013-9-8,89,81,73,74,72,69,94,81,55,29.97,29.92,29.86,10,9,2,15,4,20,0.12,2,Rain,21
2013-9-9,91,83,75,75,73,69,94,77,49,30.01,29.96,29.91,10,10,8,17,6,23,0.00,2,,83
2013-9-10,91,83,75,75,73,71,94,78,56,30.05,30.01,29.98,10,9,0,22,9,28,0.52,2,Rain,68
2013-9-11,89,82,74,75,73,70,100,80,59,30.05,30.02,29.98,10,10,10,20,7,26,0.00,2,,86
2013-9-12,89,81,73,75,73,66,100,85,59,30.01,29.96,29.88,10,9,0,23,4,29,0.77,4,Rain,64
2013-9-13,89,81,73,74,72,70,100,79,55,29.91,29.88,29.81,10,10,8,13,3,16,0.00,1,,305
2013-9-14,91,83,75,75,73,69,94,75,52,29.98,29.90,29.84,10,9,2,18,3,22,0.21,1,Rain-Thunderstorm,331
2013-9-15,92,84,75,77,73,69,100,84,56,30.06,30.00,29.95,10,9,6,26,7,37,T,1,Rain-Thunderstorm,99
2013-9-16,87,80,73,77,74,72,100,87,68,30.05,30.02,29.97,10,9,2,22,8,29,0.17,4,Rain-Thunderstorm,78
2013-9-17,87,80,73,75,74,73,100,93,74,30.04,29.99,29.94,10,7,1,20,6,26,0.63,5,Rain-Thunderstorm,67
2013-9-18,88,81,73,75,73,72,100,90,59,30.02,29.98,29.95,10,10,6,20,6,23,0.08,3,Rain,78
2013-9-19,89,81,73,77,73,72,100,83,59,30.03,29.99,29.96,10,9,2,17,5,21,0.02,2,Rain,84
2013-9-20,88,81,73,74,70,67,100,74,51,30.02,29.96,29.90,10,10,9,15,7,18,0.00,1,,77
2013-9-21,88,80,71,73,70,67,100,76,51,29.94,29.86,29.79,10,10,10,12,4,15,0.00,1,,121
2013-9-22,88,82,75,75,73,69,94,79,55,29.87,29.82,29.78,10,10,9,15,5,21,0.00,1,,196
2013-9-23,82,78,74,79,75,73,100,95,79,29.97,29.92,29.85,10,5,0,18,5,24,3.24,7,Fog-Rain-Thunderstorm,65
2013-9-24,85,79,72,79,74,71,100,93,74,29.97,29.94,29.90,10,5,0,24,4,30,2.46,5,Fog-Rain-Thunderstorm,218
2013-9-25,81,77,73,75,73,69,100,91,79,29.94,29.88,29.83,10,9,3,16,4,21,0.12,3,Rain,321
2013-9-26,88,82,75,79,77,73,100,86,63,29.88,29.85,29.81,10,7,0,24,8,33,0.50,4,Fog-Rain,283
2013-9-27,87,80,73,73,70,64,94,75,51,29.94,29.89,29.86,10,10,7,14,7,18,T,3,,23
2013-9-28,90,81,72,72,70,67,93,76,51,29.99,29.93,29.89,10,10,10,20,8,25,0.00,1,,53
2013-9-29,89,80,71,71,69,65,93,72,50,29.98,29.94,29.88,10,10,10,12,6,18,0.00,1,,75
2013-9-30,91,81,71,73,70,65,100,75,44,30.00,29.95,29.89,10,10,10,15,4,18,T,2,Rain,117